sensor_id;sensor_type;location;lat;lon;timestamp;P1;durP1;ratioP1;P2;durP2;ratioP2
5225;SDS011;2632;51.666;7.146;2022-10-14T00:01:42;26.13;;;11.03;;
5225;SDS011;2632;51.666;7.146;2022-10-14T00:04:09;24.10;;;9.23;;
5225;SDS011;2632;51.666;7.146;2022-10-14T00:06:36;32.03;;;10.30;;
5225;SDS011;2632;51.666;7.146;2022-10-14T00:09:04;28.67;;;10.33;;
5225;SDS011;2632;51.666;7.146;2022-10-14T00:11:34;29.33;;;9.90;;
5225;SDS011;2632;51.666;7.146;2022-10-14T00:14:04;26.50;;;9.00;;
5225;SDS011;2632;51.666;7.146;2022-10-14T00:16:36;29.87;;;10.20;;
5225;SDS011;2632;51.666;7.146;2022-10-14T00:19:04;29.53;;;10.37;;
5225;SDS011;2632;51.666;7.146;2022-10-14T00:21:31;26.40;;;9.50;;
5225;SDS011;2632;51.666;7.146;2022-10-14T00:23:59;30.23;;;10.00;;
5225;SDS011;2632;51.666;7.146;2022-10-14T00:26:27;23.90;;;8.23;;
5225;SDS011;2632;51.666;7.146;2022-10-14T00:28:56;28.50;;;10.93;;
5225;SDS011;2632;51.666;7.146;2022-10-14T00:31:24;29.03;;;10.30;;
5225;SDS011;2632;51.666;7.146;2022-10-14T00:33:52;31.13;;;10.90;;
5225;SDS011;2632;51.666;7.146;2022-10-14T00:36:20;31.67;;;9.63;;
5225;SDS011;2632;51.666;7.146;2022-10-14T00:38:47;24.90;;;9.77;;
5225;SDS011;2632;51.666;7.146;2022-10-14T00:41:33;22.60;;;9.60;;
5225;SDS011;2632;51.666;7.146;2022-10-14T00:46:37;21.63;;;8.43;;
5225;SDS011;2632;51.666;7.146;2022-10-14T00:49:12;22.43;;;8.70;;
5225;SDS011;2632;51.666;7.146;2022-10-14T00:51:44;22.10;;;8.77;;
5225;SDS011;2632;51.666;7.146;2022-10-14T00:54:15;25.70;;;10.07;;
5225;SDS011;2632;51.666;7.146;2022-10-14T00:56:43;27.40;;;8.90;;
5225;SDS011;2632;51.666;7.146;2022-10-14T00:59:12;24.83;;;8.23;;
5225;SDS011;2632;51.666;7.146;2022-10-14T01:01:40;22.07;;;9.00;;
5225;SDS011;2632;51.666;7.146;2022-10-14T01:04:06;20.80;;;8.30;;
5225;SDS011;2632;51.666;7.146;2022-10-14T01:06:37;19.03;;;8.00;;
5225;SDS011;2632;51.666;7.146;2022-10-14T01:10:01;23.13;;;8.77;;
5225;SDS011;2632;51.666;7.146;2022-10-14T01:12:32;24.87;;;9.53;;
5225;SDS011;2632;51.666;7.146;2022-10-14T01:17:37;16.30;;;7.93;;
5225;SDS011;2632;51.666;7.146;2022-10-14T01:23:09;23.30;;;8.67;;
5225;SDS011;2632;51.666;7.146;2022-10-14T01:25:44;23.83;;;8.17;;
5225;SDS011;2632;51.666;7.146;2022-10-14T01:28:44;22.93;;;7.53;;
5225;SDS011;2632;51.666;7.146;2022-10-14T01:31:21;15.63;;;7.30;;
5225;SDS011;2632;51.666;7.146;2022-10-14T01:33:52;19.00;;;8.13;;
5225;SDS011;2632;51.666;7.146;2022-10-14T01:36:44;28.63;;;8.43;;
5225;SDS011;2632;51.666;7.146;2022-10-14T01:39:22;19.20;;;8.07;;
5225;SDS011;2632;51.666;7.146;2022-10-14T01:41:54;20.00;;;7.27;;
5225;SDS011;2632;51.666;7.146;2022-10-14T01:44:26;22.63;;;8.93;;
5225;SDS011;2632;51.666;7.146;2022-10-14T01:46:55;19.67;;;9.40;;
5225;SDS011;2632;51.666;7.146;2022-10-14T01:49:31;18.67;;;9.43;;
5225;SDS011;2632;51.666;7.146;2022-10-14T01:52:03;20.30;;;7.70;;
5225;SDS011;2632;51.666;7.146;2022-10-14T01:54:34;18.63;;;7.30;;
5225;SDS011;2632;51.666;7.146;2022-10-14T01:57:09;16.33;;;7.30;;
5225;SDS011;2632;51.666;7.146;2022-10-14T01:59:41;16.70;;;6.50;;
5225;SDS011;2632;51.666;7.146;2022-10-14T02:02:10;20.80;;;8.00;;
5225;SDS011;2632;51.666;7.146;2022-10-14T02:04:37;23.60;;;7.20;;
5225;SDS011;2632;51.666;7.146;2022-10-14T02:07:10;14.37;;;6.40;;
5225;SDS011;2632;51.666;7.146;2022-10-14T02:12:39;17.63;;;6.77;;
5225;SDS011;2632;51.666;7.146;2022-10-14T02:17:53;18.60;;;7.40;;
5225;SDS011;2632;51.666;7.146;2022-10-14T02:20:25;20.40;;;7.83;;
5225;SDS011;2632;51.666;7.146;2022-10-14T02:22:57;17.80;;;6.70;;
5225;SDS011;2632;51.666;7.146;2022-10-14T02:25:45;19.50;;;7.40;;
5225;SDS011;2632;51.666;7.146;2022-10-14T02:28:15;17.20;;;6.60;;
5225;SDS011;2632;51.666;7.146;2022-10-14T02:30:45;18.37;;;7.17;;
5225;SDS011;2632;51.666;7.146;2022-10-14T02:33:17;18.37;;;6.97;;
5225;SDS011;2632;51.666;7.146;2022-10-14T02:35:47;18.47;;;7.23;;
5225;SDS011;2632;51.666;7.146;2022-10-14T02:38:16;12.67;;;6.50;;
5225;SDS011;2632;51.666;7.146;2022-10-14T02:40:45;15.67;;;6.30;;
5225;SDS011;2632;51.666;7.146;2022-10-14T02:43:15;14.37;;;6.23;;
5225;SDS011;2632;51.666;7.146;2022-10-14T02:45:43;15.30;;;7.23;;
5225;SDS011;2632;51.666;7.146;2022-10-14T02:48:10;17.03;;;6.30;;
5225;SDS011;2632;51.666;7.146;2022-10-14T02:50:37;19.90;;;6.93;;
5225;SDS011;2632;51.666;7.146;2022-10-14T02:53:05;18.47;;;6.50;;
5225;SDS011;2632;51.666;7.146;2022-10-14T02:55:31;12.57;;;5.47;;
5225;SDS011;2632;51.666;7.146;2022-10-14T02:57:58;18.50;;;5.93;;
5225;SDS011;2632;51.666;7.146;2022-10-14T03:00:24;17.03;;;6.60;;
5225;SDS011;2632;51.666;7.146;2022-10-14T03:02:51;21.10;;;8.20;;
5225;SDS011;2632;51.666;7.146;2022-10-14T03:05:17;16.70;;;6.70;;
5225;SDS011;2632;51.666;7.146;2022-10-14T03:07:44;20.07;;;6.97;;
5225;SDS011;2632;51.666;7.146;2022-10-14T03:10:11;14.70;;;6.30;;
5225;SDS011;2632;51.666;7.146;2022-10-14T03:12:37;15.77;;;5.93;;
5225;SDS011;2632;51.666;7.146;2022-10-14T03:15:04;14.97;;;8.50;;
5225;SDS011;2632;51.666;7.146;2022-10-14T03:17:31;13.57;;;5.57;;
5225;SDS011;2632;51.666;7.146;2022-10-14T03:19:58;18.60;;;6.70;;
5225;SDS011;2632;51.666;7.146;2022-10-14T03:22:24;18.57;;;6.70;;
5225;SDS011;2632;51.666;7.146;2022-10-14T03:24:51;16.67;;;5.90;;
5225;SDS011;2632;51.666;7.146;2022-10-14T03:27:18;19.07;;;6.83;;
5225;SDS011;2632;51.666;7.146;2022-10-14T03:29:44;17.17;;;7.20;;
5225;SDS011;2632;51.666;7.146;2022-10-14T03:32:11;13.63;;;5.77;;
5225;SDS011;2632;51.666;7.146;2022-10-14T03:34:37;12.97;;;6.57;;
5225;SDS011;2632;51.666;7.146;2022-10-14T03:37:04;10.83;;;6.03;;
5225;SDS011;2632;51.666;7.146;2022-10-14T03:39:31;12.00;;;6.17;;
5225;SDS011;2632;51.666;7.146;2022-10-14T03:41:57;14.17;;;5.77;;
5225;SDS011;2632;51.666;7.146;2022-10-14T03:44:24;14.20;;;5.53;;
5225;SDS011;2632;51.666;7.146;2022-10-14T03:46:51;14.63;;;6.30;;
5225;SDS011;2632;51.666;7.146;2022-10-14T03:49:17;14.53;;;5.80;;
5225;SDS011;2632;51.666;7.146;2022-10-14T03:51:44;11.90;;;5.90;;
5225;SDS011;2632;51.666;7.146;2022-10-14T03:54:10;10.37;;;5.17;;
5225;SDS011;2632;51.666;7.146;2022-10-14T03:56:37;15.07;;;5.33;;
5225;SDS011;2632;51.666;7.146;2022-10-14T03:59:04;10.63;;;5.93;;
5225;SDS011;2632;51.666;7.146;2022-10-14T04:01:30;10.90;;;5.00;;
5225;SDS011;2632;51.666;7.146;2022-10-14T04:03:57;9.40;;;5.53;;
5225;SDS011;2632;51.666;7.146;2022-10-14T04:06:24;15.80;;;5.93;;
5225;SDS011;2632;51.666;7.146;2022-10-14T04:08:50;16.17;;;6.73;;
5225;SDS011;2632;51.666;7.146;2022-10-14T04:11:17;18.23;;;5.67;;
5225;SDS011;2632;51.666;7.146;2022-10-14T04:13:43;13.73;;;5.20;;
5225;SDS011;2632;51.666;7.146;2022-10-14T04:16:10;15.07;;;5.87;;
5225;SDS011;2632;51.666;7.146;2022-10-14T04:18:37;14.27;;;5.57;;
5225;SDS011;2632;51.666;7.146;2022-10-14T04:21:09;14.40;;;5.30;;
5225;SDS011;2632;51.666;7.146;2022-10-14T04:23:37;11.17;;;5.00;;
5225;SDS011;2632;51.666;7.146;2022-10-14T04:26:05;9.80;;;5.07;;
5225;SDS011;2632;51.666;7.146;2022-10-14T04:28:33;9.37;;;5.60;;
5225;SDS011;2632;51.666;7.146;2022-10-14T04:31:00;11.40;;;5.30;;
5225;SDS011;2632;51.666;7.146;2022-10-14T04:33:27;9.53;;;4.80;;
5225;SDS011;2632;51.666;7.146;2022-10-14T04:35:57;13.60;;;6.10;;
5225;SDS011;2632;51.666;7.146;2022-10-14T04:38:29;13.10;;;5.50;;
5225;SDS011;2632;51.666;7.146;2022-10-14T04:40:55;17.80;;;9.20;;
5225;SDS011;2632;51.666;7.146;2022-10-14T04:43:22;17.90;;;9.33;;
5225;SDS011;2632;51.666;7.146;2022-10-14T04:45:49;17.27;;;9.90;;
5225;SDS011;2632;51.666;7.146;2022-10-14T04:48:16;16.90;;;7.73;;
5225;SDS011;2632;51.666;7.146;2022-10-14T04:50:43;11.80;;;5.90;;
5225;SDS011;2632;51.666;7.146;2022-10-14T04:53:10;13.97;;;5.87;;
5225;SDS011;2632;51.666;7.146;2022-10-14T04:55:39;12.63;;;5.17;;
5225;SDS011;2632;51.666;7.146;2022-10-14T04:58:05;12.30;;;5.70;;
5225;SDS011;2632;51.666;7.146;2022-10-14T05:00:32;15.27;;;5.87;;
5225;SDS011;2632;51.666;7.146;2022-10-14T05:02:59;11.77;;;5.17;;
5225;SDS011;2632;51.666;7.146;2022-10-14T05:05:25;8.23;;;5.03;;
5225;SDS011;2632;51.666;7.146;2022-10-14T05:07:52;10.77;;;5.53;;
5225;SDS011;2632;51.666;7.146;2022-10-14T05:10:18;10.57;;;5.00;;
5225;SDS011;2632;51.666;7.146;2022-10-14T05:12:45;11.33;;;5.30;;
5225;SDS011;2632;51.666;7.146;2022-10-14T05:15:12;11.80;;;4.87;;
5225;SDS011;2632;51.666;7.146;2022-10-14T05:17:38;10.37;;;4.50;;
5225;SDS011;2632;51.666;7.146;2022-10-14T05:20:05;8.67;;;4.83;;
5225;SDS011;2632;51.666;7.146;2022-10-14T05:22:32;10.60;;;4.93;;
5225;SDS011;2632;51.666;7.146;2022-10-14T05:24:59;9.80;;;4.23;;
5225;SDS011;2632;51.666;7.146;2022-10-14T05:27:25;7.77;;;4.73;;
5225;SDS011;2632;51.666;7.146;2022-10-14T05:29:52;7.73;;;4.30;;
5225;SDS011;2632;51.666;7.146;2022-10-14T05:32:18;7.40;;;4.47;;
5225;SDS011;2632;51.666;7.146;2022-10-14T05:34:46;9.90;;;3.90;;
5225;SDS011;2632;51.666;7.146;2022-10-14T05:37:12;9.47;;;4.33;;
5225;SDS011;2632;51.666;7.146;2022-10-14T05:39:39;17.33;;;8.80;;
5225;SDS011;2632;51.666;7.146;2022-10-14T05:42:06;17.20;;;9.20;;
5225;SDS011;2632;51.666;7.146;2022-10-14T05:44:32;18.40;;;9.10;;
5225;SDS011;2632;51.666;7.146;2022-10-14T05:46:59;16.27;;;7.23;;
5225;SDS011;2632;51.666;7.146;2022-10-14T05:49:25;10.80;;;6.00;;
5225;SDS011;2632;51.666;7.146;2022-10-14T05:51:52;7.80;;;4.30;;
5225;SDS011;2632;51.666;7.146;2022-10-14T05:54:18;9.97;;;4.97;;
5225;SDS011;2632;51.666;7.146;2022-10-14T05:56:45;12.20;;;7.10;;
5225;SDS011;2632;51.666;7.146;2022-10-14T05:59:12;13.23;;;6.00;;
5225;SDS011;2632;51.666;7.146;2022-10-14T06:01:38;8.70;;;4.67;;
5225;SDS011;2632;51.666;7.146;2022-10-14T06:04:05;12.30;;;4.80;;
5225;SDS011;2632;51.666;7.146;2022-10-14T06:06:33;10.80;;;4.30;;
5225;SDS011;2632;51.666;7.146;2022-10-14T06:08:59;7.63;;;4.00;;
5225;SDS011;2632;51.666;7.146;2022-10-14T06:11:26;8.23;;;4.17;;
5225;SDS011;2632;51.666;7.146;2022-10-14T06:13:52;8.97;;;4.07;;
5225;SDS011;2632;51.666;7.146;2022-10-14T06:16:19;6.20;;;3.50;;
5225;SDS011;2632;51.666;7.146;2022-10-14T06:18:46;12.10;;;3.70;;
5225;SDS011;2632;51.666;7.146;2022-10-14T06:21:19;4.87;;;3.53;;
5225;SDS011;2632;51.666;7.146;2022-10-14T06:23:45;4.40;;;3.50;;
5225;SDS011;2632;51.666;7.146;2022-10-14T06:26:12;5.33;;;3.40;;
5225;SDS011;2632;51.666;7.146;2022-10-14T06:28:38;8.70;;;3.40;;
5225;SDS011;2632;51.666;7.146;2022-10-14T06:31:06;4.57;;;3.03;;
5225;SDS011;2632;51.666;7.146;2022-10-14T06:33:32;7.07;;;3.50;;
5225;SDS011;2632;51.666;7.146;2022-10-14T06:36:00;6.20;;;3.03;;
5225;SDS011;2632;51.666;7.146;2022-10-14T06:38:28;9.63;;;3.20;;
5225;SDS011;2632;51.666;7.146;2022-10-14T06:40:54;5.93;;;3.60;;
5225;SDS011;2632;51.666;7.146;2022-10-14T06:43:21;6.17;;;3.70;;
5225;SDS011;2632;51.666;7.146;2022-10-14T06:45:48;5.70;;;3.40;;
5225;SDS011;2632;51.666;7.146;2022-10-14T06:48:15;5.27;;;2.93;;
5225;SDS011;2632;51.666;7.146;2022-10-14T06:50:41;6.07;;;3.27;;
5225;SDS011;2632;51.666;7.146;2022-10-14T06:53:08;7.13;;;3.93;;
5225;SDS011;2632;51.666;7.146;2022-10-14T06:55:34;7.20;;;3.30;;
5225;SDS011;2632;51.666;7.146;2022-10-14T06:58:01;5.50;;;3.10;;
5225;SDS011;2632;51.666;7.146;2022-10-14T07:00:27;4.23;;;3.33;;
5225;SDS011;2632;51.666;7.146;2022-10-14T07:02:56;4.67;;;3.17;;
5225;SDS011;2632;51.666;7.146;2022-10-14T07:05:24;7.60;;;4.27;;
5225;SDS011;2632;51.666;7.146;2022-10-14T07:07:51;8.30;;;3.13;;
5225;SDS011;2632;51.666;7.146;2022-10-14T07:10:18;7.37;;;3.53;;
5225;SDS011;2632;51.666;7.146;2022-10-14T07:12:44;4.97;;;3.20;;
5225;SDS011;2632;51.666;7.146;2022-10-14T07:15:11;5.97;;;2.90;;
5225;SDS011;2632;51.666;7.146;2022-10-14T07:17:38;5.53;;;2.90;;
5225;SDS011;2632;51.666;7.146;2022-10-14T07:20:05;6.20;;;3.17;;
5225;SDS011;2632;51.666;7.146;2022-10-14T07:22:32;6.87;;;2.80;;
5225;SDS011;2632;51.666;7.146;2022-10-14T07:25:04;8.33;;;3.00;;
5225;SDS011;2632;51.666;7.146;2022-10-14T07:27:31;8.20;;;3.50;;
5225;SDS011;2632;51.666;7.146;2022-10-14T07:29:58;5.60;;;2.93;;
5225;SDS011;2632;51.666;7.146;2022-10-14T07:32:24;5.53;;;3.03;;
5225;SDS011;2632;51.666;7.146;2022-10-14T07:34:51;3.60;;;2.50;;
5225;SDS011;2632;51.666;7.146;2022-10-14T07:37:18;5.00;;;3.30;;
5225;SDS011;2632;51.666;7.146;2022-10-14T07:39:45;5.10;;;2.57;;
5225;SDS011;2632;51.666;7.146;2022-10-14T07:42:11;6.47;;;2.83;;
5225;SDS011;2632;51.666;7.146;2022-10-14T07:44:38;7.30;;;4.60;;
5225;SDS011;2632;51.666;7.146;2022-10-14T07:47:05;6.80;;;4.47;;
5225;SDS011;2632;51.666;7.146;2022-10-14T07:49:32;7.80;;;5.27;;
5225;SDS011;2632;51.666;7.146;2022-10-14T07:51:59;7.23;;;4.70;;
5225;SDS011;2632;51.666;7.146;2022-10-14T07:54:25;7.50;;;4.20;;
5225;SDS011;2632;51.666;7.146;2022-10-14T07:56:55;10.17;;;6.07;;
5225;SDS011;2632;51.666;7.146;2022-10-14T07:59:23;7.73;;;4.70;;
5225;SDS011;2632;51.666;7.146;2022-10-14T08:01:50;7.13;;;4.63;;
5225;SDS011;2632;51.666;7.146;2022-10-14T08:04:18;6.73;;;4.87;;
5225;SDS011;2632;51.666;7.146;2022-10-14T08:06:48;13.53;;;4.73;;
5225;SDS011;2632;51.666;7.146;2022-10-14T08:09:15;7.60;;;4.67;;
5225;SDS011;2632;51.666;7.146;2022-10-14T08:11:43;7.07;;;4.43;;
5225;SDS011;2632;51.666;7.146;2022-10-14T08:14:10;5.80;;;3.93;;
5225;SDS011;2632;51.666;7.146;2022-10-14T08:16:36;7.70;;;3.60;;
5225;SDS011;2632;51.666;7.146;2022-10-14T08:19:05;5.70;;;3.13;;
5225;SDS011;2632;51.666;7.146;2022-10-14T08:21:40;3.90;;;2.97;;
5225;SDS011;2632;51.666;7.146;2022-10-14T08:24:08;4.20;;;2.90;;
5225;SDS011;2632;51.666;7.146;2022-10-14T08:26:36;5.00;;;3.17;;
5225;SDS011;2632;51.666;7.146;2022-10-14T08:29:10;5.80;;;3.10;;
5225;SDS011;2632;51.666;7.146;2022-10-14T08:31:37;3.17;;;2.47;;
5225;SDS011;2632;51.666;7.146;2022-10-14T08:34:03;7.43;;;2.83;;
5225;SDS011;2632;51.666;7.146;2022-10-14T08:36:30;3.50;;;2.13;;
5225;SDS011;2632;51.666;7.146;2022-10-14T08:38:57;2.93;;;2.13;;
5225;SDS011;2632;51.666;7.146;2022-10-14T08:44:22;7.50;;;2.40;;
5225;SDS011;2632;51.666;7.146;2022-10-14T08:46:55;2.50;;;1.60;;
5225;SDS011;2632;51.666;7.146;2022-10-14T08:52:05;5.43;;;2.27;;
5225;SDS011;2632;51.666;7.146;2022-10-14T08:54:39;3.13;;;2.37;;
5225;SDS011;2632;51.666;7.146;2022-10-14T08:57:28;3.40;;;1.97;;
5225;SDS011;2632;51.666;7.146;2022-10-14T09:00:00;2.87;;;2.20;;
5225;SDS011;2632;51.666;7.146;2022-10-14T09:02:43;4.20;;;1.90;;
5225;SDS011;2632;51.666;7.146;2022-10-14T09:05:13;2.70;;;1.90;;
5225;SDS011;2632;51.666;7.146;2022-10-14T09:07:40;2.23;;;1.90;;
5225;SDS011;2632;51.666;7.146;2022-10-14T09:10:24;5.30;;;2.10;;
5225;SDS011;2632;51.666;7.146;2022-10-14T09:13:09;2.07;;;1.80;;
5225;SDS011;2632;51.666;7.146;2022-10-14T09:15:41;5.77;;;1.90;;
5225;SDS011;2632;51.666;7.146;2022-10-14T09:18:31;2.40;;;1.87;;
5225;SDS011;2632;51.666;7.146;2022-10-14T09:21:10;2.27;;;1.90;;
5225;SDS011;2632;51.666;7.146;2022-10-14T09:24:11;5.43;;;2.03;;
5225;SDS011;2632;51.666;7.146;2022-10-14T09:26:39;4.30;;;1.70;;
5225;SDS011;2632;51.666;7.146;2022-10-14T09:31:55;3.30;;;2.00;;
5225;SDS011;2632;51.666;7.146;2022-10-14T09:34:34;3.70;;;2.00;;
5225;SDS011;2632;51.666;7.146;2022-10-14T09:39:54;1.60;;;1.50;;
5225;SDS011;2632;51.666;7.146;2022-10-14T09:42:39;2.70;;;2.07;;
5225;SDS011;2632;51.666;7.146;2022-10-14T09:45:17;3.03;;;2.30;;
5225;SDS011;2632;51.666;7.146;2022-10-14T09:47:51;3.37;;;2.20;;
5225;SDS011;2632;51.666;7.146;2022-10-14T09:50:42;3.57;;;1.77;;
5225;SDS011;2632;51.666;7.146;2022-10-14T09:53:29;2.77;;;2.20;;
5225;SDS011;2632;51.666;7.146;2022-10-14T09:56:10;3.97;;;2.10;;
5225;SDS011;2632;51.666;7.146;2022-10-14T10:01:16;4.47;;;2.13;;
5225;SDS011;2632;51.666;7.146;2022-10-14T10:03:44;8.37;;;3.43;;
5225;SDS011;2632;51.666;7.146;2022-10-14T10:06:14;4.77;;;2.53;;
5225;SDS011;2632;51.666;7.146;2022-10-14T10:13:58;9.00;;;3.30;;
5225;SDS011;2632;51.666;7.146;2022-10-14T10:16:40;7.63;;;3.10;;
5225;SDS011;2632;51.666;7.146;2022-10-14T10:22:13;5.70;;;3.30;;
5225;SDS011;2632;51.666;7.146;2022-10-14T10:24:49;8.40;;;3.00;;
5225;SDS011;2632;51.666;7.146;2022-10-14T10:27:18;5.80;;;2.93;;
5225;SDS011;2632;51.666;7.146;2022-10-14T10:29:47;7.50;;;3.43;;
5225;SDS011;2632;51.666;7.146;2022-10-14T10:35:02;7.27;;;3.27;;
5225;SDS011;2632;51.666;7.146;2022-10-14T10:37:42;7.73;;;3.27;;
5225;SDS011;2632;51.666;7.146;2022-10-14T10:42:58;4.93;;;2.87;;
5225;SDS011;2632;51.666;7.146;2022-10-14T10:45:45;7.50;;;4.20;;
5225;SDS011;2632;51.666;7.146;2022-10-14T10:54:25;4.27;;;3.27;;
5225;SDS011;2632;51.666;7.146;2022-10-14T10:57:03;7.90;;;3.37;;
5225;SDS011;2632;51.666;7.146;2022-10-14T10:59:53;6.60;;;3.20;;
5225;SDS011;2632;51.666;7.146;2022-10-14T11:08:35;16.13;;;4.87;;
5225;SDS011;2632;51.666;7.146;2022-10-14T11:11:46;30.20;;;9.33;;
5225;SDS011;2632;51.666;7.146;2022-10-14T11:17:16;83.83;;;21.70;;
5225;SDS011;2632;51.666;7.146;2022-10-14T11:22:26;88.77;;;21.50;;
5225;SDS011;2632;51.666;7.146;2022-10-14T11:25:30;91.37;;;26.13;;
5225;SDS011;2632;51.666;7.146;2022-10-14T11:45:40;191.63;;;45.50;;
5225;SDS011;2632;51.666;7.146;2022-10-14T11:48:19;175.03;;;45.00;;
5225;SDS011;2632;51.666;7.146;2022-10-14T11:50:48;168.97;;;45.10;;
5225;SDS011;2632;51.666;7.146;2022-10-14T11:53:20;161.87;;;42.10;;
5225;SDS011;2632;51.666;7.146;2022-10-14T11:56:03;155.00;;;43.93;;
5225;SDS011;2632;51.666;7.146;2022-10-14T11:58:56;156.37;;;40.87;;
5225;SDS011;2632;51.666;7.146;2022-10-14T12:01:28;159.13;;;40.07;;
5225;SDS011;2632;51.666;7.146;2022-10-14T12:04:04;161.57;;;39.27;;
5225;SDS011;2632;51.666;7.146;2022-10-14T12:06:39;148.17;;;35.93;;
5225;SDS011;2632;51.666;7.146;2022-10-14T12:09:22;140.70;;;37.70;;
5225;SDS011;2632;51.666;7.146;2022-10-14T12:12:03;138.70;;;37.70;;
5225;SDS011;2632;51.666;7.146;2022-10-14T12:14:35;143.77;;;38.40;;
5225;SDS011;2632;51.666;7.146;2022-10-14T12:17:17;149.73;;;35.47;;
5225;SDS011;2632;51.666;7.146;2022-10-14T12:19:49;130.27;;;35.73;;
5225;SDS011;2632;51.666;7.146;2022-10-14T12:22:20;146.40;;;34.63;;
5225;SDS011;2632;51.666;7.146;2022-10-14T12:24:52;142.77;;;36.03;;
5225;SDS011;2632;51.666;7.146;2022-10-14T12:27:21;149.30;;;37.37;;
5225;SDS011;2632;51.666;7.146;2022-10-14T12:29:51;139.37;;;35.23;;
5225;SDS011;2632;51.666;7.146;2022-10-14T12:32:28;141.17;;;35.17;;
5225;SDS011;2632;51.666;7.146;2022-10-14T12:34:57;127.30;;;33.50;;
5225;SDS011;2632;51.666;7.146;2022-10-14T12:42:27;129.33;;;35.57;;
5225;SDS011;2632;51.666;7.146;2022-10-14T12:44:56;136.97;;;34.20;;
5225;SDS011;2632;51.666;7.146;2022-10-14T12:47:29;119.07;;;32.60;;
5225;SDS011;2632;51.666;7.146;2022-10-14T12:50:02;118.50;;;32.43;;
5225;SDS011;2632;51.666;7.146;2022-10-14T12:52:32;127.73;;;32.80;;
5225;SDS011;2632;51.666;7.146;2022-10-14T12:55:07;129.30;;;32.60;;
5225;SDS011;2632;51.666;7.146;2022-10-14T12:57:42;121.67;;;31.57;;
5225;SDS011;2632;51.666;7.146;2022-10-14T13:02:48;120.13;;;32.80;;
5225;SDS011;2632;51.666;7.146;2022-10-14T13:05:28;116.33;;;32.20;;
5225;SDS011;2632;51.666;7.146;2022-10-14T13:10:45;125.67;;;32.13;;
5225;SDS011;2632;51.666;7.146;2022-10-14T13:18:54;112.63;;;30.03;;
5225;SDS011;2632;51.666;7.146;2022-10-14T13:24:00;136.87;;;29.67;;
5225;SDS011;2632;51.666;7.146;2022-10-14T13:26:36;120.70;;;32.00;;
5225;SDS011;2632;51.666;7.146;2022-10-14T13:31:55;114.53;;;29.60;;
5225;SDS011;2632;51.666;7.146;2022-10-14T13:39:57;110.90;;;28.20;;
5225;SDS011;2632;51.666;7.146;2022-10-14T13:43:01;96.50;;;26.63;;
5225;SDS011;2632;51.666;7.146;2022-10-14T13:45:36;101.63;;;27.37;;
5225;SDS011;2632;51.666;7.146;2022-10-14T13:48:10;105.87;;;28.17;;
5225;SDS011;2632;51.666;7.146;2022-10-14T13:50:45;97.50;;;28.30;;
5225;SDS011;2632;51.666;7.146;2022-10-14T13:53:16;92.83;;;26.57;;
5225;SDS011;2632;51.666;7.146;2022-10-14T13:55:46;86.10;;;26.70;;
5225;SDS011;2632;51.666;7.146;2022-10-14T13:58:20;101.30;;;27.47;;
5225;SDS011;2632;51.666;7.146;2022-10-14T14:00:58;91.73;;;26.80;;
5225;SDS011;2632;51.666;7.146;2022-10-14T14:03:36;97.17;;;26.57;;
5225;SDS011;2632;51.666;7.146;2022-10-14T14:06:11;96.03;;;27.80;;
5225;SDS011;2632;51.666;7.146;2022-10-14T14:08:46;96.90;;;27.27;;
5225;SDS011;2632;51.666;7.146;2022-10-14T14:11:17;90.40;;;26.50;;
5225;SDS011;2632;51.666;7.146;2022-10-14T14:13:47;83.97;;;27.37;;
5225;SDS011;2632;51.666;7.146;2022-10-14T14:16:27;92.43;;;28.20;;
5225;SDS011;2632;51.666;7.146;2022-10-14T14:18:58;98.13;;;28.53;;
5225;SDS011;2632;51.666;7.146;2022-10-14T14:21:34;89.17;;;27.50;;
5225;SDS011;2632;51.666;7.146;2022-10-14T14:24:00;89.43;;;27.73;;
5225;SDS011;2632;51.666;7.146;2022-10-14T14:26:34;93.70;;;25.90;;
5225;SDS011;2632;51.666;7.146;2022-10-14T14:29:09;90.67;;;27.17;;
5225;SDS011;2632;51.666;7.146;2022-10-14T14:31:45;89.23;;;24.53;;
5225;SDS011;2632;51.666;7.146;2022-10-14T14:34:32;89.97;;;25.10;;
5225;SDS011;2632;51.666;7.146;2022-10-14T14:37:00;84.10;;;25.80;;
5225;SDS011;2632;51.666;7.146;2022-10-14T14:40:33;94.50;;;26.40;;
5225;SDS011;2632;51.666;7.146;2022-10-14T14:42:47;83.63;;;25.50;;
5225;SDS011;2632;51.666;7.146;2022-10-14T14:45:27;76.97;;;24.50;;
5225;SDS011;2632;51.666;7.146;2022-10-14T14:47:56;91.73;;;26.27;;
5225;SDS011;2632;51.666;7.146;2022-10-14T14:50:28;89.47;;;23.63;;
5225;SDS011;2632;51.666;7.146;2022-10-14T14:58:20;79.97;;;24.03;;
5225;SDS011;2632;51.666;7.146;2022-10-14T15:00:51;81.43;;;23.07;;
5225;SDS011;2632;51.666;7.146;2022-10-14T15:03:21;67.70;;;24.30;;
5225;SDS011;2632;51.666;7.146;2022-10-14T15:06:13;80.27;;;23.93;;
5225;SDS011;2632;51.666;7.146;2022-10-14T15:08:40;68.93;;;24.20;;
5225;SDS011;2632;51.666;7.146;2022-10-14T15:11:06;80.00;;;24.67;;
5225;SDS011;2632;51.666;7.146;2022-10-14T15:16:03;76.00;;;24.10;;
5225;SDS011;2632;51.666;7.146;2022-10-14T15:18:31;67.80;;;21.50;;
5225;SDS011;2632;51.666;7.146;2022-10-14T15:23:43;79.70;;;21.53;;
5225;SDS011;2632;51.666;7.146;2022-10-14T15:26:32;76.63;;;22.60;;
5225;SDS011;2632;51.666;7.146;2022-10-14T15:31:35;76.43;;;24.40;;
5225;SDS011;2632;51.666;7.146;2022-10-14T15:34:03;77.30;;;21.20;;
5225;SDS011;2632;51.666;7.146;2022-10-14T15:36:32;60.67;;;22.30;;
5225;SDS011;2632;51.666;7.146;2022-10-14T15:38:59;67.80;;;20.13;;
5225;SDS011;2632;51.666;7.146;2022-10-14T15:41:27;61.40;;;20.50;;
5225;SDS011;2632;51.666;7.146;2022-10-14T15:43:54;68.87;;;20.83;;
5225;SDS011;2632;51.666;7.146;2022-10-14T15:46:20;61.33;;;20.03;;
5225;SDS011;2632;51.666;7.146;2022-10-14T15:49:12;63.07;;;20.40;;
5225;SDS011;2632;51.666;7.146;2022-10-14T15:51:40;59.07;;;20.37;;
5225;SDS011;2632;51.666;7.146;2022-10-14T15:54:10;56.43;;;19.77;;
5225;SDS011;2632;51.666;7.146;2022-10-14T15:56:39;62.73;;;21.20;;
5225;SDS011;2632;51.666;7.146;2022-10-14T15:59:06;58.10;;;19.50;;
5225;SDS011;2632;51.666;7.146;2022-10-14T16:01:33;53.77;;;19.30;;
5225;SDS011;2632;51.666;7.146;2022-10-14T16:04:03;56.83;;;19.40;;
5225;SDS011;2632;51.666;7.146;2022-10-14T16:06:30;68.53;;;21.77;;
5225;SDS011;2632;51.666;7.146;2022-10-14T16:08:57;68.73;;;20.70;;
5225;SDS011;2632;51.666;7.146;2022-10-14T16:11:25;57.27;;;20.13;;
5225;SDS011;2632;51.666;7.146;2022-10-14T16:13:53;76.77;;;23.40;;
5225;SDS011;2632;51.666;7.146;2022-10-14T16:16:21;61.60;;;20.13;;
5225;SDS011;2632;51.666;7.146;2022-10-14T16:18:52;67.97;;;21.47;;
5225;SDS011;2632;51.666;7.146;2022-10-14T16:21:18;75.20;;;20.33;;
5225;SDS011;2632;51.666;7.146;2022-10-14T16:23:45;69.13;;;21.17;;
5225;SDS011;2632;51.666;7.146;2022-10-14T16:26:11;63.03;;;20.13;;
5225;SDS011;2632;51.666;7.146;2022-10-14T16:28:39;49.63;;;19.50;;
5225;SDS011;2632;51.666;7.146;2022-10-14T16:31:07;57.73;;;20.10;;
5225;SDS011;2632;51.666;7.146;2022-10-14T16:33:37;55.20;;;19.03;;
5225;SDS011;2632;51.666;7.146;2022-10-14T16:36:10;65.57;;;20.63;;
5225;SDS011;2632;51.666;7.146;2022-10-14T16:38:39;64.73;;;18.90;;
5225;SDS011;2632;51.666;7.146;2022-10-14T16:41:05;57.67;;;20.57;;
5225;SDS011;2632;51.666;7.146;2022-10-14T16:43:34;71.80;;;21.37;;
5225;SDS011;2632;51.666;7.146;2022-10-14T16:46:02;54.63;;;19.40;;
5225;SDS011;2632;51.666;7.146;2022-10-14T16:48:29;53.07;;;20.37;;
5225;SDS011;2632;51.666;7.146;2022-10-14T16:50:58;58.80;;;20.87;;
5225;SDS011;2632;51.666;7.146;2022-10-14T16:53:26;63.13;;;19.70;;
5225;SDS011;2632;51.666;7.146;2022-10-14T16:56:07;63.90;;;20.90;;
5225;SDS011;2632;51.666;7.146;2022-10-14T16:58:56;53.17;;;19.87;;
5225;SDS011;2632;51.666;7.146;2022-10-14T17:01:23;61.30;;;19.20;;
5225;SDS011;2632;51.666;7.146;2022-10-14T17:03:50;63.20;;;19.80;;
5225;SDS011;2632;51.666;7.146;2022-10-14T17:06:17;55.93;;;17.70;;
5225;SDS011;2632;51.666;7.146;2022-10-14T17:08:49;65.27;;;18.93;;
5225;SDS011;2632;51.666;7.146;2022-10-14T17:11:16;55.77;;;18.60;;
5225;SDS011;2632;51.666;7.146;2022-10-14T17:13:43;43.83;;;17.30;;
5225;SDS011;2632;51.666;7.146;2022-10-14T17:16:10;61.33;;;19.47;;
5225;SDS011;2632;51.666;7.146;2022-10-14T17:18:37;53.90;;;19.53;;
5225;SDS011;2632;51.666;7.146;2022-10-14T17:21:07;53.70;;;18.20;;